Terminal Aerodrome Forecast
Issued by NWS Raleigh/Durham, NC

Home | Current Version | Previous Version | Text Only | Print | Product List | Glossary On
Versions: 1 2 3 4 5 6 7 8 9 10 11 12 13 14 15 16 17 18
000
FTUS42 KRAH 290012 AAA
TAFFAY
TAF AMD
KFAY 290012Z 2900/2924 04003KT P6SM FEW035 SCT180
     FM290600 01003KT 6SM BR SCT003 SCT150
      TEMPO 2908/2912 3SM BR OVC003
     FM291500 03008KT P6SM BKN030 BKN150=

USA.gov is the U.S. government's official web portal to all federal, state and local government web resources and services.